Terminal Aerodrome Forecast
Issued by NWS

Home | Current Version | Previous Version | Text Only | Print | Product List | Glossary Off
Versions: 1 2 3 4 5 6 7 8 9 10 11 12 13 14 15 16 17

000
FTUS43 KABR 211100
TAFATY
TAF
KATY 211133Z 2112/2212 VRB06KT P6SM BKN006
      TEMPO 2112/2114 2SM BR SCT006
     FM211500 34006KT P6SM SCT030=

USA.gov is the U.S. government's official web portal to all federal, state and local government web resources and services.